Terminal Aerodrome Forecast
Issued by NWS

Home | Current Version | Previous Version | Text Only | Print | Product List | Glossary On
Versions: 1 2 3 4 5 6 7 8 9 10 11 12 13 14 15 16 17 18 19 20 21 22 23 24 25 26 27 28 29 30
000
FTUS43 KLSX 042122 AAB
TAFSUS
TAF AMD
KSUS 042122Z 0421/0518 26010KT P6SM BKN009 OVC015
     FM050000 29007KT P6SM BKN015
     FM050400 VRB04KT 6SM BR SCT020
     FM050900 VRB03KT 3SM BR SCT005
     FM051500 14007KT P6SM SCT250=

USA.gov is the U.S. government's official web portal to all federal, state and local government web resources and services.